DTTZ

Tozeur Nefta International Airport

Tozeur, Tunisia
METAR DTTZ 252200Z 08016KT CAVOK 28/12 Q1013 NOSIG
Observed Flight Rules
May-25 @ 22:00 UTC (43 minutes ago) Visual Flight Rules
Wind Visibility Clouds
80° at 16 knots 10,000+ meters
  • Clear skies
Temperatures Readings
Current 28°C / 82°F
Dewpoint 12°C / 54°F
Humidity 37%
Altimeter 29.91" Hg
Pressure 1013 hPa
Elevation 93
METAR DTTZ 252200Z 08016KT CAVOK 28/12 Q1013 NOSIG
Observed Flight Rules
May-25 @ 22:00 UTC
(43 minutes ago)
VFR
Wind Visibility
80° at 16 knots 10,000+ meters
Clouds
  • Clear skies
Temperature Dewpoint
28°C / 82°F 12°C / 54°F
Humidity Altimeter Pressure
37% 29.91" Hg 1013 hPa